Roza A — TCRB7 — position and weather

sailwx.info

Track history (hours):
 
Tides and Currents Weather Stations Pressure Air Temp Water Temp Dewpoint Dewpoint Depression Visibility Wind Speed Wind Dir Waves Ship Positions

Roza A

Last reported at 2018-Jun-22 22:58 UTC. Time now 2018-Jun-22 22:57 UTC.
Position N 44°09' E 028°39'.

Length 168 m; draft 7.1 m.

Type: Ship (hazmat cat A). MMSI: 271001057.

Date/timePositionNaut miles runAvg speedWind from/ knotsBaromVisibWave heightAir tempDewpointWater temp
2018-Jun-22 22:58N 44°09' E 028°39'0 0.0
2018-Jun-22 22:28N 44°09' E 028°39'0 0.0
2018-Jun-22 21:58N 44°09' E 028°39'0 0.0
2018-Jun-22 21:28N 44°09' E 028°39'0 0.2
2018-Jun-22 21:01N 44°09' E 028°39'2 3.3
2018-Jun-22 20:31N 44°08' E 028°41'3 6.6
2018-Jun-22 20:00N 44°05' E 028°43'3 5.2
2018-Jun-22 19:31N 44°05' E 028°47'2 2.9
2018-Jun-22 18:57N 44°07' E 028°48'0 0.1
2018-Jun-22 18:30N 44°07' E 028°48'0 0.0
2018-Jun-22 18:00N 44°07' E 028°48'0 0.1
2018-Jun-22 17:24N 44°07' E 028°48'0 0.0
2018-Jun-22 17:00N 44°07' E 028°48'0 0.0
2018-Jun-22 16:27N 44°07' E 028°48'0 0.0
2018-Jun-22 16:00N 44°07' E 028°48'0 0.0
2018-Jun-22 15:30N 44°07' E 028°48'0 0.0
2018-Jun-22 15:00N 44°07' E 028°48'0 0.0
2018-Jun-22 14:27N 44°07' E 028°48'0 0.0
2018-Jun-22 14:00N 44°07' E 028°48'0 0.0
2018-Jun-22 13:30N 44°07' E 028°48'0 0.0
2018-Jun-22 13:00N 44°07' E 028°48'0 0.0
2018-Jun-22 12:30N 44°07' E 028°48'0 0.0
2018-Jun-22 12:00N 44°07' E 028°48'0 0.0
2018-Jun-22 11:27N 44°07' E 028°48'0 0.0
2018-Jun-22 11:00N 44°07' E 028°48'0 0.0
2018-Jun-22 10:30N 44°07' E 028°48'0 0.2
2018-Jun-22 09:57N 44°07' E 028°48'0 0.2
2018-Jun-22 09:30N 44°07' E 028°48'3 5.4
2018-Jun-22 09:00N 44°04' E 028°49'510.4
2018-Jun-22 08:30N 43°59' E 028°52'510.3
2018-Jun-22 08:00N 43°54' E 028°54'5 9.7
2018-Jun-22 07:30N 43°50' E 028°54'5 9.7
2018-Jun-22 07:00N 43°45' E 028°53'510.1
2018-Jun-22 06:30N 43°40' E 028°51'5 9.8
2018-Jun-22 06:00N 43°35' E 028°49'5 9.7
2018-Jun-22 05:30N 43°31' E 028°45'5 9.4
2018-Jun-22 05:00N 43°28' E 028°41'5 9.3
2018-Jun-22 04:30N 43°25' E 028°36'5 9.4
2018-Jun-22 04:00N 43°21' E 028°32'5 9.4
2018-Jun-22 03:30N 43°18' E 028°27'5 9.7
2018-Jun-22 03:00N 43°16' E 028°21'510.0
2018-Jun-22 02:30N 43°14' E 028°14'810.4
2018-Jun-22 01:46N 43°12' E 028°05'410.6
2018-Jun-22 01:26N 43°11' E 028°00'1 0.1
2018-Jun-21 05:31N 43°11' E 028°02'0 3.6
2018-Jun-21 05:31N 43°11' E 028°02'4 5.2
2018-Jun-21 04:45N 43°07' E 027°60'2 0.2
2018-Jun-20 20:17N 43°07' E 027°57'0 0.1
2018-Jun-20 19:56N 43°07' E 027°57'0 0.0
2018-Jun-20 19:23N 43°07' E 027°57'0 0.0
2018-Jun-20 18:56N 43°07' E 027°57'0 0.0
2018-Jun-20 18:26N 43°07' E 027°57'0 0.0
2018-Jun-20 17:56N 43°07' E 027°57'0 0.0
2018-Jun-20 17:29N 43°07' E 027°57'0 0.0
2018-Jun-20 05:05N 43°07' E 027°57'0 0.1
2018-Jun-20 04:59N 43°07' E 027°57'0 0.0
2018-Jun-20 01:32N 43°07' E 027°57'0 0.3
2018-Jun-20 01:29N 43°07' E 027°57'0 0.0
2018-Jun-20 00:17N 43°07' E 027°57'0 0.1
2018-Jun-19 23:59N 43°07' E 027°57'0 0.4
2018-Jun-19 23:30N 43°07' E 027°58'4 6.1
2018-Jun-19 22:53N 43°04' E 027°60'4 9.8
2018-Jun-19 22:30N 42°60' E 027°60'24 9.1
2018-Jun-19 19:49N 42°35' E 028°01'3 9.8
2018-Jun-19 19:28N 42°32' E 028°04'5 9.8
2018-Jun-19 19:00N 42°29' E 028°07'5 9.4
2018-Jun-19 18:31N 42°25' E 028°11'5 9.6
2018-Jun-19 18:00N 42°21' E 028°14'5 9.7
2018-Jun-19 17:31N 42°17' E 028°18'5 9.9
2018-Jun-19 17:00N 42°13' E 028°22'5 9.8
2018-Jun-19 16:30N 42°09' E 028°26'2610.0
2018-Jun-19 13:53N 41°48' E 028°47'410.0
2018-Jun-19 13:31N 41°45' E 028°50'510.1
2018-Jun-19 13:01N 41°41' E 028°54'510.1
2018-Jun-19 12:31N 41°37' E 028°59'14 9.7
2018-Jun-19 11:07N 41°27' E 029°11'7 9.4
2018-Jun-19 10:25N 41°21' E 029°13'  
2018-Jun-15 16:52N 38°51' E 025°12'611.0
2018-Jun-15 16:20N 38°45' E 025°09'611.1
2018-Jun-15 15:47N 38°40' E 025°06'311.2
2018-Jun-15 15:30N 38°37' E 025°04'611.0
2018-Jun-15 15:00N 38°32' E 025°01'811.4
2018-Jun-15 14:20N 38°25' E 024°56'4410.8
2018-Jun-15 10:13N 37°49' E 024°25'311.3
2018-Jun-15 09:57N 37°46' E 024°23'511.2
2018-Jun-15 09:29N 37°43' E 024°17'810.6
2018-Jun-15 08:46N 37°37' E 024°11'311.0
2018-Jun-15 08:30N 37°36' E 024°09'610.7
2018-Jun-15 07:59N 37°34' E 024°02'510.6
2018-Jun-15 07:29N 37°35' E 023°55'510.4
2018-Jun-15 07:01N 37°37' E 023°50'510.5
2018-Jun-15 06:30N 37°39' E 023°44'510.5
2018-Jun-15 06:01N 37°44' E 023°40'510.7
2018-Jun-15 05:31N 37°49' E 023°38'510.5
2018-Jun-15 05:00N 37°54' E 023°37'3 6.7
2018-Jun-15 04:31N 37°57' E 023°36'0 0.4
2018-Jun-15 04:00N 37°57' E 023°36'0 0.0
2018-Jun-15 03:30N 37°57' E 023°36'0 0.0
2018-Jun-15 03:00N 37°57' E 023°36'0 0.0
2018-Jun-15 02:30N 37°57' E 023°36'0 0.0
2018-Jun-15 02:00N 37°57' E 023°36'0 0.0
2018-Jun-15 01:30N 37°57' E 023°36'0 0.0
2018-Jun-15 01:00N 37°57' E 023°36'0 0.0
2018-Jun-15 00:30N 37°57' E 023°36'0 0.0
2018-Jun-15 00:00N 37°57' E 023°36'0 0.0
2018-Jun-14 23:30N 37°57' E 023°36'0 0.0
2018-Jun-14 23:00N 37°57' E 023°36'0 0.0
2018-Jun-14 22:30N 37°57' E 023°36'0 0.0
2018-Jun-14 22:00N 37°57' E 023°36'0 0.0
2018-Jun-14 21:30N 37°57' E 023°36'0 0.0
2018-Jun-14 21:00N 37°57' E 023°36'0 0.0
2018-Jun-14 20:30N 37°57' E 023°36'0 0.0
2018-Jun-14 20:00N 37°57' E 023°36'0 0.0
2018-Jun-14 19:30N 37°57' E 023°36'0 0.0
2018-Jun-14 19:00N 37°57' E 023°36'0 0.0
2018-Jun-14 18:30N 37°57' E 023°36'0 0.0
2018-Jun-14 18:00N 37°57' E 023°36'0 0.0
2018-Jun-14 17:30N 37°57' E 023°36'0 0.0
2018-Jun-14 17:00N 37°57' E 023°36'0 0.0
2018-Jun-14 16:30N 37°57' E 023°36'0 0.0
2018-Jun-14 16:00N 37°57' E 023°36'0 0.0
2018-Jun-14 15:30N 37°57' E 023°36'0 0.0
2018-Jun-14 15:00N 37°57' E 023°36'0 0.0
2018-Jun-14 14:30N 37°57' E 023°36'0 0.0
2018-Jun-14 14:00N 37°57' E 023°36'0 0.0
2018-Jun-14 13:30N 37°57' E 023°36'0 0.0
2018-Jun-14 13:00N 37°57' E 023°36'0 0.0
2018-Jun-14 12:30N 37°57' E 023°36'0 0.0
2018-Jun-14 12:00N 37°57' E 023°36'0 0.0
2018-Jun-14 11:30N 37°57' E 023°36'0 0.0
2018-Jun-14 11:00N 37°57' E 023°36'1 2.8
2018-Jun-14 10:31N 37°56' E 023°36'2 4.6
2018-Jun-14 10:01N 37°54' E 023°36'4 8.0
2018-Jun-14 09:30N 37°50' E 023°35'1 2.2
2018-Jun-14 09:00N 37°49' E 023°35'0 0.4
2018-Jun-14 08:31N 37°49' E 023°35'0 0.9
2018-Jun-14 08:01N 37°49' E 023°35'1 1.7
2018-Jun-14 07:31N 37°50' E 023°35'0 0.6
2018-Jun-14 07:00N 37°50' E 023°34'0 0.5
2018-Jun-14 06:30N 37°50' E 023°34'1 1.8
2018-Jun-14 06:01N 37°49' E 023°35'1 2.1
2018-Jun-14 05:30N 37°49' E 023°36'0 0.9
2018-Jun-14 05:00N 37°49' E 023°36'0 0.8
2018-Jun-14 04:31N 37°49' E 023°35'0 0.5
2018-Jun-14 04:01N 37°49' E 023°35'0 0.3
2018-Jun-14 03:31N 37°50' E 023°35'0 0.2
2018-Jun-14 03:00N 37°50' E 023°35'0 0.1
2018-Jun-14 02:31N 37°50' E 023°35'0 0.5
2018-Jun-14 02:00N 37°50' E 023°35'3 6.3
2018-Jun-14 01:31N 37°51' E 023°39'510.2
2018-Jun-14 01:01N 37°46' E 023°42'611.1
2018-Jun-14 00:28N 37°41' E 023°45'510.7
2018-Jun-14 00:00N 37°36' E 023°45'1410.3
2018-Jun-13 22:41N 37°22' E 023°47'210.6
2018-Jun-13 22:30N 37°20' E 023°46'6310.5
2018-Jun-13 16:30N 36°20' E 023°23'  
Track history (hours):
 
Tides and Currents Weather Stations Pressure Air Temp Water Temp Dewpoint Dewpoint Depression Visibility Wind Speed Wind Dir Waves Ship Positions

Roza A

Last reported at 2018-Jun-22 22:58 UTC. Time now 2018-Jun-22 22:57 UTC.
Position N 44°09' E 028°39'.

Length 168 m; draft 7.1 m.

Type: Ship (hazmat cat A). MMSI: 271001057.

Date/timePositionNaut miles runAvg speedWind from/ knotsBaromVisibWave heightAir tempDewpointWater temp
2018-Jun-22 22:58N 44°09' E 028°39'0 0.0
2018-Jun-22 22:28N 44°09' E 028°39'0 0.0
2018-Jun-22 21:58N 44°09' E 028°39'0 0.0
2018-Jun-22 21:28N 44°09' E 028°39'0 0.2
2018-Jun-22 21:01N 44°09' E 028°39'2 3.3
2018-Jun-22 20:31N 44°08' E 028°41'3 6.6
2018-Jun-22 20:00N 44°05' E 028°43'3 5.2
2018-Jun-22 19:31N 44°05' E 028°47'2 2.9
2018-Jun-22 18:57N 44°07' E 028°48'0 0.1
2018-Jun-22 18:30N 44°07' E 028°48'0 0.0
2018-Jun-22 18:00N 44°07' E 028°48'0 0.1
2018-Jun-22 17:24N 44°07' E 028°48'0 0.0
2018-Jun-22 17:00N 44°07' E 028°48'0 0.0
2018-Jun-22 16:27N 44°07' E 028°48'0 0.0
2018-Jun-22 16:00N 44°07' E 028°48'0 0.0
2018-Jun-22 15:30N 44°07' E 028°48'0 0.0
2018-Jun-22 15:00N 44°07' E 028°48'0 0.0
2018-Jun-22 14:27N 44°07' E 028°48'0 0.0
2018-Jun-22 14:00N 44°07' E 028°48'0 0.0
2018-Jun-22 13:30N 44°07' E 028°48'0 0.0
2018-Jun-22 13:00N 44°07' E 028°48'0 0.0
2018-Jun-22 12:30N 44°07' E 028°48'0 0.0
2018-Jun-22 12:00N 44°07' E 028°48'0 0.0
2018-Jun-22 11:27N 44°07' E 028°48'0 0.0
2018-Jun-22 11:00N 44°07' E 028°48'0 0.0
2018-Jun-22 10:30N 44°07' E 028°48'0 0.2
2018-Jun-22 09:57N 44°07' E 028°48'0 0.2
2018-Jun-22 09:30N 44°07' E 028°48'3 5.4
2018-Jun-22 09:00N 44°04' E 028°49'510.4
2018-Jun-22 08:30N 43°59' E 028°52'510.3
2018-Jun-22 08:00N 43°54' E 028°54'5 9.7
2018-Jun-22 07:30N 43°50' E 028°54'5 9.7
2018-Jun-22 07:00N 43°45' E 028°53'510.1
2018-Jun-22 06:30N 43°40' E 028°51'5 9.8
2018-Jun-22 06:00N 43°35' E 028°49'5 9.7
2018-Jun-22 05:30N 43°31' E 028°45'5 9.4
2018-Jun-22 05:00N 43°28' E 028°41'5 9.3
2018-Jun-22 04:30N 43°25' E 028°36'5 9.4
2018-Jun-22 04:00N 43°21' E 028°32'5 9.4
2018-Jun-22 03:30N 43°18' E 028°27'5 9.7
2018-Jun-22 03:00N 43°16' E 028°21'510.0
2018-Jun-22 02:30N 43°14' E 028°14'810.4
2018-Jun-22 01:46N 43°12' E 028°05'410.6
2018-Jun-22 01:26N 43°11' E 028°00'1 0.1
2018-Jun-21 05:31N 43°11' E 028°02'0 3.6
2018-Jun-21 05:31N 43°11' E 028°02'4 5.2
2018-Jun-21 04:45N 43°07' E 027°60'2 0.2
2018-Jun-20 20:17N 43°07' E 027°57'0 0.1
2018-Jun-20 19:56N 43°07' E 027°57'0 0.0
2018-Jun-20 19:23N 43°07' E 027°57'0 0.0
2018-Jun-20 18:56N 43°07' E 027°57'0 0.0
2018-Jun-20 18:26N 43°07' E 027°57'0 0.0
2018-Jun-20 17:56N 43°07' E 027°57'0 0.0
2018-Jun-20 17:29N 43°07' E 027°57'0 0.0
2018-Jun-20 05:05N 43°07' E 027°57'0 0.1
2018-Jun-20 04:59N 43°07' E 027°57'0 0.0
2018-Jun-20 01:32N 43°07' E 027°57'0 0.3
2018-Jun-20 01:29N 43°07' E 027°57'0 0.0
2018-Jun-20 00:17N 43°07' E 027°57'0 0.1
2018-Jun-19 23:59N 43°07' E 027°57'0 0.4
2018-Jun-19 23:30N 43°07' E 027°58'4 6.1
2018-Jun-19 22:53N 43°04' E 027°60'4 9.8
2018-Jun-19 22:30N 42°60' E 027°60'24 9.1
2018-Jun-19 19:49N 42°35' E 028°01'3 9.8
2018-Jun-19 19:28N 42°32' E 028°04'5 9.8
2018-Jun-19 19:00N 42°29' E 028°07'5 9.4
2018-Jun-19 18:31N 42°25' E 028°11'5 9.6
2018-Jun-19 18:00N 42°21' E 028°14'5 9.7
2018-Jun-19 17:31N 42°17' E 028°18'5 9.9
2018-Jun-19 17:00N 42°13' E 028°22'5 9.8
2018-Jun-19 16:30N 42°09' E 028°26'2610.0
2018-Jun-19 13:53N 41°48' E 028°47'410.0
2018-Jun-19 13:31N 41°45' E 028°50'510.1
2018-Jun-19 13:01N 41°41' E 028°54'510.1
2018-Jun-19 12:31N 41°37' E 028°59'14 9.7
2018-Jun-19 11:07N 41°27' E 029°11'7 9.4
2018-Jun-19 10:25N 41°21' E 029°13'  
2018-Jun-15 16:52N 38°51' E 025°12'611.0
2018-Jun-15 16:20N 38°45' E 025°09'611.1
2018-Jun-15 15:47N 38°40' E 025°06'311.2
2018-Jun-15 15:30N 38°37' E 025°04'611.0
2018-Jun-15 15:00N 38°32' E 025°01'811.4
2018-Jun-15 14:20N 38°25' E 024°56'4410.8
2018-Jun-15 10:13N 37°49' E 024°25'311.3
2018-Jun-15 09:57N 37°46' E 024°23'511.2
2018-Jun-15 09:29N 37°43' E 024°17'810.6
2018-Jun-15 08:46N 37°37' E 024°11'311.0
2018-Jun-15 08:30N 37°36' E 024°09'610.7
2018-Jun-15 07:59N 37°34' E 024°02'510.6
2018-Jun-15 07:29N 37°35' E 023°55'510.4
2018-Jun-15 07:01N 37°37' E 023°50'510.5
2018-Jun-15 06:30N 37°39' E 023°44'510.5
2018-Jun-15 06:01N 37°44' E 023°40'510.7
2018-Jun-15 05:31N 37°49' E 023°38'510.5
2018-Jun-15 05:00N 37°54' E 023°37'3 6.7
2018-Jun-15 04:31N 37°57' E 023°36'0 0.4
2018-Jun-15 04:00N 37°57' E 023°36'0 0.0
2018-Jun-15 03:30N 37°57' E 023°36'0 0.0
2018-Jun-15 03:00N 37°57' E 023°36'0 0.0
2018-Jun-15 02:30N 37°57' E 023°36'0 0.0
2018-Jun-15 02:00N 37°57' E 023°36'0 0.0
2018-Jun-15 01:30N 37°57' E 023°36'0 0.0
2018-Jun-15 01:00N 37°57' E 023°36'0 0.0
2018-Jun-15 00:30N 37°57' E 023°36'0 0.0
2018-Jun-15 00:00N 37°57' E 023°36'0 0.0
2018-Jun-14 23:30N 37°57' E 023°36'0 0.0
2018-Jun-14 23:00N 37°57' E 023°36'0 0.0
2018-Jun-14 22:30N 37°57' E 023°36'0 0.0
2018-Jun-14 22:00N 37°57' E 023°36'0 0.0
2018-Jun-14 21:30N 37°57' E 023°36'0 0.0
2018-Jun-14 21:00N 37°57' E 023°36'0 0.0
2018-Jun-14 20:30N 37°57' E 023°36'0 0.0
2018-Jun-14 20:00N 37°57' E 023°36'0 0.0
2018-Jun-14 19:30N 37°57' E 023°36'0 0.0
2018-Jun-14 19:00N 37°57' E 023°36'0 0.0
2018-Jun-14 18:30N 37°57' E 023°36'0 0.0
2018-Jun-14 18:00N 37°57' E 023°36'0 0.0
2018-Jun-14 17:30N 37°57' E 023°36'0 0.0
2018-Jun-14 17:00N 37°57' E 023°36'0 0.0
2018-Jun-14 16:30N 37°57' E 023°36'0 0.0
2018-Jun-14 16:00N 37°57' E 023°36'0 0.0
2018-Jun-14 15:30N 37°57' E 023°36'0 0.0
2018-Jun-14 15:00N 37°57' E 023°36'0 0.0
2018-Jun-14 14:30N 37°57' E 023°36'0 0.0
2018-Jun-14 14:00N 37°57' E 023°36'0 0.0
2018-Jun-14 13:30N 37°57' E 023°36'0 0.0
2018-Jun-14 13:00N 37°57' E 023°36'0 0.0
2018-Jun-14 12:30N 37°57' E 023°36'0 0.0
2018-Jun-14 12:00N 37°57' E 023°36'0 0.0
2018-Jun-14 11:30N 37°57' E 023°36'0 0.0
2018-Jun-14 11:00N 37°57' E 023°36'1 2.8
2018-Jun-14 10:31N 37°56' E 023°36'2 4.6
2018-Jun-14 10:01N 37°54' E 023°36'4 8.0
2018-Jun-14 09:30N 37°50' E 023°35'1 2.2
2018-Jun-14 09:00N 37°49' E 023°35'0 0.4
2018-Jun-14 08:31N 37°49' E 023°35'0 0.9
2018-Jun-14 08:01N 37°49' E 023°35'1 1.7
2018-Jun-14 07:31N 37°50' E 023°35'0 0.6
2018-Jun-14 07:00N 37°50' E 023°34'0 0.5
2018-Jun-14 06:30N 37°50' E 023°34'1 1.8
2018-Jun-14 06:01N 37°49' E 023°35'1 2.1
2018-Jun-14 05:30N 37°49' E 023°36'0 0.9
2018-Jun-14 05:00N 37°49' E 023°36'0 0.8
2018-Jun-14 04:31N 37°49' E 023°35'0 0.5
2018-Jun-14 04:01N 37°49' E 023°35'0 0.3
2018-Jun-14 03:31N 37°50' E 023°35'0 0.2
2018-Jun-14 03:00N 37°50' E 023°35'0 0.1
2018-Jun-14 02:31N 37°50' E 023°35'0 0.5
2018-Jun-14 02:00N 37°50' E 023°35'3 6.3
2018-Jun-14 01:31N 37°51' E 023°39'510.2
2018-Jun-14 01:01N 37°46' E 023°42'611.1
2018-Jun-14 00:28N 37°41' E 023°45'510.7
2018-Jun-14 00:00N 37°36' E 023°45'1410.3
2018-Jun-13 22:41N 37°22' E 023°47'210.6
2018-Jun-13 22:30N 37°20' E 023°46'6310.5
2018-Jun-13 16:30N 36°20' E 023°23'  

Dump ship's entire track history